GLO1425 SBCY-SBSP
Flight info
| Callsign | GLO1425 |
|---|---|
| Flight time | 1h 42m |
| Altitude | 39000 |
| Route | DIKUN DCT ASDOV DCT UTLOT |
| Aircraft | B38M/M-SDE1FGHILORVWXY/HB1 |
Departure
| Time | 2026-04-30 13:24 |
|---|---|
| Airport | Várzea Grande–Marechal Rondon International Airport (SBCY) |
Arrival
| Time | 2026-04-30 15:06 |
|---|---|
| Airport | Congonhas–Deputado Freitas Nobre Airport (SBSP) |
| Time | Latitude | Longitude | Altitude | Speed | Heading |
|---|---|---|---|---|---|
| 2026-04-30 12:46 | -15.65042 | -56.11981 | 599 ft | 0 kts | 242° |
| 2026-04-30 13:15 | -15.65035 | -56.11967 | 599 ft | 4 kts | 240° |
| 2026-04-30 13:15 | -15.65025 | -56.11952 | 599 ft | 2 kts | 209° |
| 2026-04-30 13:16 | -15.65014 | -56.11950 | 599 ft | 2 kts | 164° |
| 2026-04-30 13:16 | -15.65003 | -56.11954 | 599 ft | 2 kts | 154° |
| 2026-04-30 13:16 | -15.64999 | -56.11956 | 599 ft | 0 kts | 153° |
| 2026-04-30 13:20 | -15.65034 | -56.11939 | 599 ft | 9 kts | 154° |
| 2026-04-30 13:20 | -15.65095 | -56.11905 | 599 ft | 11 kts | 152° |
| 2026-04-30 13:20 | -15.65169 | -56.11865 | 600 ft | 13 kts | 152° |
| 2026-04-30 13:20 | -15.65256 | -56.11816 | 600 ft | 15 kts | 152° |
| 2026-04-30 13:21 | -15.65344 | -56.11771 | 600 ft | 14 kts | 154° |
| 2026-04-30 13:21 | -15.65437 | -56.11723 | 600 ft | 16 kts | 153° |
| 2026-04-30 13:21 | -15.65544 | -56.11666 | 600 ft | 18 kts | 153° |
| 2026-04-30 13:22 | -15.65800 | -56.11529 | 599 ft | 23 kts | 152° |
| 2026-04-30 13:22 | -15.65947 | -56.11448 | 599 ft | 25 kts | 152° |
| 2026-04-30 13:22 | -15.66224 | -56.11305 | 599 ft | 13 kts | 149° |
| 2026-04-30 13:23 | -15.66238 | -56.11223 | 600 ft | 13 kts | 62° |
| 2026-04-30 13:23 | -15.65871 | -56.11363 | 599 ft | 84 kts | 333° |
| 2026-04-30 13:24 | -15.64063 | -56.12311 | 971 ft | 179 kts | 333° |
| 2026-04-30 13:24 | -15.61712 | -56.13572 | 2358 ft | 204 kts | 335° |
| 2026-04-30 13:25 | -15.59034 | -56.15137 | 3894 ft | 240 kts | 322° |
| 2026-04-30 13:25 | -15.58089 | -56.18459 | 5405 ft | 274 kts | 250° |
| 2026-04-30 13:26 | -15.62973 | -56.21062 | 8207 ft | 284 kts | 182° |
| 2026-04-30 13:26 | -15.66769 | -56.22339 | 10164 ft | 296 kts | 211° |
| 2026-04-30 13:27 | -15.70764 | -56.23332 | 11391 ft | 319 kts | 161° |
| 2026-04-30 13:28 | -15.77542 | -56.21864 | 13492 ft | 347 kts | 174° |
| 2026-04-30 13:28 | -15.82398 | -56.21465 | 14991 ft | 356 kts | 174° |
| 2026-04-30 13:28 | -15.84893 | -56.21265 | 15688 ft | 361 kts | 174° |
| 2026-04-30 13:29 | -15.89739 | -56.19944 | 17040 ft | 367 kts | 146° |
| 2026-04-30 13:29 | -15.93163 | -56.16018 | 18298 ft | 374 kts | 123° |
| 2026-04-30 13:30 | -15.97096 | -56.09976 | 19759 ft | 384 kts | 122° |
| 2026-04-30 13:31 | -16.00063 | -56.05305 | 20832 ft | 391 kts | 122° |
| 2026-04-30 13:31 | -16.04606 | -55.98116 | 22390 ft | 401 kts | 122° |
| 2026-04-30 13:32 | -16.07694 | -55.93224 | 23382 ft | 409 kts | 122° |
| 2026-04-30 13:32 | -16.10836 | -55.88242 | 24246 ft | 414 kts | 122° |
| 2026-04-30 13:33 | -16.14014 | -55.83201 | 25087 ft | 420 kts | 122° |
| 2026-04-30 13:33 | -16.17239 | -55.78081 | 25924 ft | 425 kts | 122° |
| 2026-04-30 13:34 | -16.18865 | -55.75498 | 26334 ft | 428 kts | 122° |
| 2026-04-30 13:34 | -16.23806 | -55.67643 | 27559 ft | 436 kts | 122° |
| 2026-04-30 13:35 | -16.25470 | -55.64996 | 27957 ft | 439 kts | 122° |
| 2026-04-30 13:35 | -16.28811 | -55.59679 | 28733 ft | 444 kts | 122° |
| 2026-04-30 13:36 | -16.32211 | -55.54264 | 29481 ft | 450 kts | 122° |
| 2026-04-30 13:36 | -16.33923 | -55.51534 | 29850 ft | 452 kts | 122° |
| 2026-04-30 13:36 | -16.37385 | -55.46014 | 30509 ft | 457 kts | 122° |
| 2026-04-30 13:37 | -16.39133 | -55.43226 | 30803 ft | 460 kts | 122° |
| 2026-04-30 13:37 | -16.42650 | -55.37610 | 31424 ft | 465 kts | 122° |
| 2026-04-30 13:38 | -16.46212 | -55.31919 | 31990 ft | 470 kts | 122° |
| 2026-04-30 13:38 | -16.48001 | -55.29060 | 32288 ft | 472 kts | 122° |
| 2026-04-30 13:38 | -16.51582 | -55.23329 | 32840 ft | 477 kts | 122° |
| 2026-04-30 13:39 | -16.55225 | -55.17498 | 33380 ft | 482 kts | 122° |
| 2026-04-30 13:39 | -16.58895 | -55.11617 | 33969 ft | 485 kts | 122° |
| 2026-04-30 13:40 | -16.60733 | -55.08670 | 34299 ft | 485 kts | 122° |
| 2026-04-30 13:40 | -16.62569 | -55.05725 | 34628 ft | 484 kts | 122° |
| 2026-04-30 13:40 | -16.64405 | -55.02779 | 34955 ft | 484 kts | 122° |
| 2026-04-30 13:40 | -16.66236 | -54.99841 | 35273 ft | 483 kts | 122° |
| 2026-04-30 13:41 | -16.68066 | -54.96901 | 35601 ft | 483 kts | 122° |
| 2026-04-30 13:41 | -16.69892 | -54.93968 | 35929 ft | 482 kts | 122° |
| 2026-04-30 13:41 | -16.71717 | -54.91034 | 36256 ft | 482 kts | 122° |
| 2026-04-30 13:41 | -16.73544 | -54.88097 | 36571 ft | 482 kts | 122° |
| 2026-04-30 13:42 | -16.75364 | -54.85168 | 36875 ft | 481 kts | 122° |
| 2026-04-30 13:42 | -16.77183 | -54.82240 | 37172 ft | 481 kts | 122° |
| 2026-04-30 13:42 | -16.80818 | -54.76387 | 37757 ft | 480 kts | 122° |
| 2026-04-30 13:43 | -16.82628 | -54.73470 | 38038 ft | 479 kts | 122° |
| 2026-04-30 13:43 | -16.84441 | -54.70548 | 38319 ft | 479 kts | 122° |
| 2026-04-30 13:43 | -16.86254 | -54.67623 | 38587 ft | 478 kts | 122° |
| 2026-04-30 13:43 | -16.88061 | -54.64708 | 38816 ft | 478 kts | 122° |
| 2026-04-30 13:44 | -16.89865 | -54.61797 | 38994 ft | 478 kts | 122° |
| 2026-04-30 13:44 | -16.91671 | -54.58881 | 39021 ft | 477 kts | 122° |
| 2026-04-30 13:44 | -16.95255 | -54.53089 | 39016 ft | 475 kts | 122° |
| 2026-04-30 13:45 | -17.00636 | -54.44384 | 39013 ft | 475 kts | 122° |
| 2026-04-30 13:46 | -17.04222 | -54.38579 | 39020 ft | 475 kts | 122° |
| 2026-04-30 13:46 | -17.07802 | -54.32778 | 39026 ft | 475 kts | 122° |
| 2026-04-30 13:47 | -17.11357 | -54.27011 | 39025 ft | 475 kts | 122° |
| 2026-04-30 13:47 | -17.14936 | -54.21202 | 39024 ft | 475 kts | 122° |
| 2026-04-30 13:48 | -17.18507 | -54.15400 | 39029 ft | 474 kts | 122° |
| 2026-04-30 13:48 | -17.22077 | -54.09598 | 39031 ft | 475 kts | 122° |
| 2026-04-30 13:49 | -17.25651 | -54.03783 | 39028 ft | 474 kts | 122° |
| 2026-04-30 13:49 | -17.29217 | -53.97978 | 39034 ft | 474 kts | 123° |
| 2026-04-30 13:50 | -17.33278 | -53.92541 | 39035 ft | 474 kts | 129° |
| 2026-04-30 13:50 | -17.39551 | -53.84524 | 39042 ft | 474 kts | 129° |
| 2026-04-30 13:51 | -17.43733 | -53.79188 | 39033 ft | 474 kts | 129° |
| 2026-04-30 13:51 | -17.47919 | -53.73843 | 39034 ft | 475 kts | 129° |
| 2026-04-30 13:52 | -17.52103 | -53.68496 | 39035 ft | 475 kts | 129° |
| 2026-04-30 13:52 | -17.56292 | -53.63139 | 39036 ft | 475 kts | 129° |
| 2026-04-30 13:53 | -17.60476 | -53.57782 | 39036 ft | 474 kts | 129° |
| 2026-04-30 13:53 | -17.64627 | -53.52465 | 39040 ft | 475 kts | 129° |
| 2026-04-30 13:54 | -17.68808 | -53.47104 | 39037 ft | 475 kts | 129° |
| 2026-04-30 13:54 | -17.72991 | -53.41738 | 39048 ft | 475 kts | 129° |
| 2026-04-30 13:55 | -17.77171 | -53.36370 | 39052 ft | 475 kts | 129° |
| 2026-04-30 13:55 | -17.81354 | -53.30993 | 39044 ft | 475 kts | 129° |
| 2026-04-30 13:56 | -17.85530 | -53.25621 | 39053 ft | 475 kts | 129° |
| 2026-04-30 13:56 | -17.89705 | -53.20247 | 39053 ft | 475 kts | 129° |
| 2026-04-30 13:57 | -17.93880 | -53.14868 | 39058 ft | 475 kts | 129° |
| 2026-04-30 13:57 | -17.98057 | -53.09483 | 39057 ft | 475 kts | 129° |
| 2026-04-30 13:58 | -18.04320 | -53.01398 | 39060 ft | 476 kts | 129° |
| 2026-04-30 13:59 | -18.08467 | -52.96040 | 39060 ft | 476 kts | 129° |
| 2026-04-30 13:59 | -18.12641 | -52.90642 | 39061 ft | 475 kts | 129° |
| 2026-04-30 14:00 | -18.16765 | -52.85304 | 39061 ft | 468 kts | 129° |
| 2026-04-30 14:00 | -18.22927 | -52.77320 | 39069 ft | 469 kts | 129° |
| 2026-04-30 14:01 | -18.27036 | -52.71991 | 39058 ft | 469 kts | 129° |
| 2026-04-30 14:01 | -18.31144 | -52.66658 | 39057 ft | 469 kts | 129° |
| 2026-04-30 14:02 | -18.35253 | -52.61320 | 39065 ft | 470 kts | 129° |
| 2026-04-30 14:02 | -18.39370 | -52.55967 | 39056 ft | 469 kts | 129° |
| 2026-04-30 14:03 | -18.43485 | -52.50612 | 39065 ft | 470 kts | 129° |
| 2026-04-30 14:03 | -18.47596 | -52.45257 | 39061 ft | 470 kts | 129° |
| 2026-04-30 14:04 | -18.51704 | -52.39903 | 39055 ft | 470 kts | 129° |
| 2026-04-30 14:04 | -18.55780 | -52.34585 | 39062 ft | 470 kts | 129° |
| 2026-04-30 14:05 | -18.59882 | -52.29229 | 39063 ft | 469 kts | 129° |
| 2026-04-30 14:05 | -18.63985 | -52.23867 | 39052 ft | 469 kts | 129° |
| 2026-04-30 14:06 | -18.70127 | -52.15832 | 39053 ft | 469 kts | 129° |
| 2026-04-30 14:07 | -18.76271 | -52.07784 | 39051 ft | 469 kts | 129° |
| 2026-04-30 14:08 | -18.82416 | -51.99724 | 39052 ft | 469 kts | 129° |
| 2026-04-30 14:08 | -18.88557 | -51.91658 | 39043 ft | 469 kts | 129° |
| 2026-04-30 14:09 | -18.92647 | -51.86281 | 39046 ft | 470 kts | 129° |
| 2026-04-30 14:10 | -18.98754 | -51.78243 | 39048 ft | 470 kts | 129° |
| 2026-04-30 14:10 | -19.02875 | -51.72814 | 39045 ft | 470 kts | 129° |
| 2026-04-30 14:11 | -19.06934 | -51.67461 | 39035 ft | 470 kts | 129° |
| 2026-04-30 14:11 | -19.11023 | -51.62064 | 39042 ft | 470 kts | 129° |
| 2026-04-30 14:12 | -19.15098 | -51.56681 | 39047 ft | 471 kts | 129° |
| 2026-04-30 14:12 | -19.19205 | -51.51250 | 39039 ft | 471 kts | 129° |
| 2026-04-30 14:13 | -19.23293 | -51.45841 | 39028 ft | 470 kts | 129° |
| 2026-04-30 14:13 | -19.27376 | -51.40432 | 39026 ft | 470 kts | 129° |
| 2026-04-30 14:14 | -19.31456 | -51.35023 | 39036 ft | 470 kts | 130° |
| 2026-04-30 14:14 | -19.35539 | -51.29605 | 39030 ft | 470 kts | 130° |
| 2026-04-30 14:15 | -19.39621 | -51.24183 | 39029 ft | 470 kts | 130° |
| 2026-04-30 14:15 | -19.43699 | -51.18763 | 39030 ft | 470 kts | 130° |
| 2026-04-30 14:16 | -19.47084 | -51.14259 | 39029 ft | 470 kts | 130° |
| 2026-04-30 14:16 | -19.51155 | -51.08838 | 39027 ft | 470 kts | 130° |
| 2026-04-30 14:17 | -19.55226 | -51.03414 | 39029 ft | 470 kts | 130° |
| 2026-04-30 14:17 | -19.59291 | -50.97991 | 39026 ft | 470 kts | 130° |
| 2026-04-30 14:18 | -19.64023 | -50.91673 | 39030 ft | 470 kts | 130° |
| 2026-04-30 14:18 | -19.69461 | -50.84404 | 39042 ft | 470 kts | 130° |
| 2026-04-30 14:19 | -19.75558 | -50.76243 | 39022 ft | 470 kts | 130° |
| 2026-04-30 14:20 | -19.79622 | -50.70797 | 39024 ft | 470 kts | 130° |
| 2026-04-30 14:20 | -19.85717 | -50.62622 | 39030 ft | 471 kts | 130° |
| 2026-04-30 14:21 | -19.89756 | -50.57197 | 39023 ft | 471 kts | 130° |
| 2026-04-30 14:22 | -19.95855 | -50.48999 | 39035 ft | 472 kts | 130° |
| 2026-04-30 14:22 | -20.01960 | -50.40782 | 39030 ft | 472 kts | 130° |
| 2026-04-30 14:23 | -20.10123 | -50.29776 | 39040 ft | 472 kts | 130° |
| 2026-04-30 14:24 | -20.17067 | -50.22497 | 39029 ft | 470 kts | 140° |
| 2026-04-30 14:25 | -20.26639 | -50.13003 | 39037 ft | 470 kts | 140° |
| 2026-04-30 14:26 | -20.33827 | -50.05867 | 39035 ft | 471 kts | 140° |
| 2026-04-30 14:27 | -20.41017 | -49.98719 | 39044 ft | 471 kts | 140° |
| 2026-04-30 14:27 | -20.45814 | -49.93945 | 39040 ft | 471 kts | 140° |
| 2026-04-30 14:28 | -20.53002 | -49.86783 | 39039 ft | 472 kts | 140° |
| 2026-04-30 14:28 | -20.57799 | -49.81998 | 39040 ft | 472 kts | 140° |
| 2026-04-30 14:29 | -20.67395 | -49.72413 | 39052 ft | 473 kts | 140° |
| 2026-04-30 14:31 | -20.79405 | -49.60392 | 39097 ft | 474 kts | 140° |
| 2026-04-30 14:31 | -20.86590 | -49.53188 | 39118 ft | 474 kts | 140° |
| 2026-04-30 14:32 | -20.93804 | -49.45944 | 39115 ft | 474 kts | 140° |
| 2026-04-30 14:33 | -20.98622 | -49.41100 | 39106 ft | 475 kts | 140° |
| 2026-04-30 14:33 | -21.05843 | -49.33833 | 39078 ft | 475 kts | 140° |
| 2026-04-30 14:34 | -21.10661 | -49.28978 | 39059 ft | 475 kts | 140° |
| 2026-04-30 14:34 | -21.15479 | -49.24119 | 39043 ft | 476 kts | 140° |
| 2026-04-30 14:35 | -21.22704 | -49.16823 | 39045 ft | 476 kts | 140° |
| 2026-04-30 14:36 | -21.27529 | -49.11946 | 39047 ft | 477 kts | 140° |
| 2026-04-30 14:36 | -21.32351 | -49.07066 | 39046 ft | 477 kts | 141° |
| 2026-04-30 14:37 | -21.37182 | -49.02174 | 39045 ft | 478 kts | 140° |
| 2026-04-30 14:37 | -21.42015 | -48.97273 | 39049 ft | 478 kts | 140° |
| 2026-04-30 14:38 | -21.46845 | -48.92371 | 39047 ft | 478 kts | 141° |
| 2026-04-30 14:38 | -21.51682 | -48.87458 | 39047 ft | 478 kts | 141° |
| 2026-04-30 14:39 | -21.56477 | -48.82583 | 39051 ft | 478 kts | 141° |
| 2026-04-30 14:39 | -21.61305 | -48.77670 | 39050 ft | 478 kts | 141° |
| 2026-04-30 14:40 | -21.68553 | -48.70284 | 39050 ft | 479 kts | 141° |
| 2026-04-30 14:40 | -21.73387 | -48.65353 | 39052 ft | 479 kts | 141° |
| 2026-04-30 14:41 | -21.78227 | -48.60410 | 39056 ft | 480 kts | 141° |
| 2026-04-30 14:41 | -21.83065 | -48.55465 | 39059 ft | 480 kts | 141° |
| 2026-04-30 14:42 | -21.87904 | -48.50513 | 39059 ft | 480 kts | 141° |
| 2026-04-30 14:42 | -21.92743 | -48.45558 | 39060 ft | 480 kts | 141° |
| 2026-04-30 14:43 | -21.97586 | -48.40592 | 39057 ft | 480 kts | 141° |
| 2026-04-30 14:43 | -22.02425 | -48.35626 | 39062 ft | 481 kts | 141° |
| 2026-04-30 14:44 | -22.07265 | -48.30655 | 39067 ft | 481 kts | 141° |
| 2026-04-30 14:44 | -22.12112 | -48.25671 | 39064 ft | 481 kts | 141° |
| 2026-04-30 14:45 | -22.16959 | -48.20682 | 39070 ft | 481 kts | 141° |
| 2026-04-30 14:45 | -22.21800 | -48.15694 | 39068 ft | 481 kts | 141° |
| 2026-04-30 14:46 | -22.26641 | -48.10701 | 39072 ft | 482 kts | 141° |
| 2026-04-30 14:46 | -22.31483 | -48.05704 | 39070 ft | 482 kts | 141° |
| 2026-04-30 14:47 | -22.36294 | -48.00733 | 39074 ft | 482 kts | 141° |
| 2026-04-30 14:47 | -22.41137 | -47.95724 | 38869 ft | 481 kts | 141° |
| 2026-04-30 14:48 | -22.43571 | -47.93207 | 37730 ft | 490 kts | 140° |
| 2026-04-30 14:48 | -22.46066 | -47.90622 | 36538 ft | 501 kts | 140° |
| 2026-04-30 14:48 | -22.48426 | -47.87858 | 35989 ft | 501 kts | 132° |
| 2026-04-30 14:48 | -22.50632 | -47.84929 | 35190 ft | 502 kts | 133° |
| 2026-04-30 14:49 | -22.52847 | -47.81990 | 34356 ft | 506 kts | 132° |
| 2026-04-30 14:49 | -22.55071 | -47.79032 | 33440 ft | 508 kts | 132° |
| 2026-04-30 14:49 | -22.57304 | -47.76059 | 32584 ft | 509 kts | 132° |
| 2026-04-30 14:49 | -22.59533 | -47.73089 | 31756 ft | 509 kts | 131° |
| 2026-04-30 14:50 | -22.64024 | -47.67101 | 29919 ft | 514 kts | 131° |
| 2026-04-30 14:50 | -22.66284 | -47.64086 | 28798 ft | 517 kts | 131° |
| 2026-04-30 14:51 | -22.70791 | -47.58067 | 26784 ft | 518 kts | 131° |
| 2026-04-30 14:51 | -22.73062 | -47.55030 | 25681 ft | 521 kts | 131° |
| 2026-04-30 14:51 | -22.77593 | -47.48967 | 24029 ft | 506 kts | 130° |
| 2026-04-30 14:52 | -22.79784 | -47.46032 | 22988 ft | 494 kts | 130° |
| 2026-04-30 14:52 | -22.83995 | -47.40387 | 21466 ft | 468 kts | 130° |
| 2026-04-30 14:52 | -22.86007 | -47.37686 | 20830 ft | 451 kts | 130° |
| 2026-04-30 14:53 | -22.89809 | -47.32582 | 19927 ft | 426 kts | 130° |
| 2026-04-30 14:53 | -22.91665 | -47.30089 | 19459 ft | 424 kts | 130° |
| 2026-04-30 14:54 | -22.95345 | -47.25140 | 18572 ft | 418 kts | 130° |
| 2026-04-30 14:54 | -22.98965 | -47.20267 | 17609 ft | 411 kts | 130° |
| 2026-04-30 14:55 | -23.02941 | -47.15976 | 16472 ft | 405 kts | 153° |
| 2026-04-30 14:55 | -23.05558 | -47.14943 | 15985 ft | 398 kts | 170° |
| 2026-04-30 14:55 | -23.10951 | -47.13723 | 14962 ft | 394 kts | 170° |
| 2026-04-30 14:56 | -23.13016 | -47.13263 | 14561 ft | 393 kts | 170° |
| 2026-04-30 14:56 | -23.18316 | -47.12091 | 13464 ft | 389 kts | 169° |
| 2026-04-30 14:57 | -23.20960 | -47.11508 | 12923 ft | 387 kts | 169° |
| 2026-04-30 14:57 | -23.26199 | -47.10356 | 11918 ft | 381 kts | 169° |
| 2026-04-30 14:58 | -23.31372 | -47.09222 | 10876 ft | 377 kts | 169° |
| 2026-04-30 14:58 | -23.33935 | -47.08661 | 10371 ft | 375 kts | 170° |
| 2026-04-30 14:58 | -23.39044 | -47.07537 | 9273 ft | 373 kts | 168° |
| 2026-04-30 14:59 | -23.43151 | -47.04442 | 8543 ft | 364 kts | 119° |
| 2026-04-30 15:00 | -23.45101 | -46.96990 | 7806 ft | 319 kts | 105° |
| 2026-04-30 15:00 | -23.46250 | -46.92505 | 7212 ft | 295 kts | 105° |
| 2026-04-30 15:01 | -23.47322 | -46.88359 | 6750 ft | 275 kts | 106° |
| 2026-04-30 15:01 | -23.47664 | -46.87049 | 6609 ft | 268 kts | 106° |
| 2026-04-30 15:01 | -23.48828 | -46.82544 | 6127 ft | 262 kts | 106° |
| 2026-04-30 15:02 | -23.49313 | -46.80673 | 5924 ft | 258 kts | 105° |
| 2026-04-30 15:02 | -23.49801 | -46.78785 | 5723 ft | 254 kts | 105° |
| 2026-04-30 15:03 | -23.51305 | -46.73830 | 5499 ft | 205 kts | 130° |
| 2026-04-30 15:03 | -23.53395 | -46.72064 | 5095 ft | 181 kts | 148° |
| 2026-04-30 15:04 | -23.55127 | -46.70878 | 4656 ft | 174 kts | 148° |
| 2026-04-30 15:04 | -23.58058 | -46.68842 | 3887 ft | 155 kts | 148° |
| 2026-04-30 15:05 | -23.60619 | -46.67056 | 3175 ft | 143 kts | 148° |
| 2026-04-30 15:06 | -23.62305 | -46.65894 | 2617 ft | 135 kts | 149° |
| 2026-04-30 15:06 | -23.63224 | -46.65260 | 2612 ft | 27 kts | 147° |
| 2026-04-30 15:07 | -23.63419 | -46.65248 | 2604 ft | 7 kts | 271° |
| 2026-04-30 15:07 | -23.63373 | -46.65301 | 2604 ft | 5 kts | 326° |
| 2026-04-30 15:08 | -23.63294 | -46.65356 | 2605 ft | 9 kts | 327° |
| 2026-04-30 15:08 | -23.63078 | -46.65503 | 2605 ft | 14 kts | 335° |
| 2026-04-30 15:09 | -23.62888 | -46.65600 | 2605 ft | 17 kts | 327° |
| 2026-04-30 15:09 | -23.62664 | -46.65756 | 2604 ft | 18 kts | 327° |
| 2026-04-30 15:10 | -23.62576 | -46.65856 | 2603 ft | 7 kts | 259° |
| 2026-04-30 15:11 | -23.62598 | -46.65903 | 2603 ft | 0 kts | 237° |